Decoded Metar for KRXE (REXBURG in ID, USA) (IATA:RXE) | Meteo·Mobile Aviation Weather
aviador You're here:

KRXE Decoded Metar

REXBURG in ID, USA
Report Time2019-02-20 01:03:00
UTC Time2019-02-20 01:10:33
Flight Rules ifr IFR
Wind220° at 06 kt
W.Decomp.*RWY 17: 4.9 kt HW 3.4 kt RCW
W.Rank220° ranks 4
Current wind is below 220° avg. (10.8)
Visibility4023 m
Phenomena:Light Snow
Clouds:Overcast 031 Hf
Expected CloudBase > 1,600 ft AGL from Temp-Dew spread
Ceiling3,100 ft
Temp-8°C (ISA -13)
Dew Point-12°C (73% RH)
AAT-13.4°C
QNH1011 hPa
Density Alt3,333 ft
Elevation4,856 ft
Report Wrong Elevation
Raw Report
SPECI KRXE 200103Z AUTO 22006KT 2 1/2SM -SN OVC031 M08/M12 A2985 RMK
AO2 P0000 T10831122=

Extra information for KRXE:More info

Metar Taf Metar & Taf Last 4 Metars F.Rules Stats Wind Profile Meteogram Temp Stats Airport Information Weather charts Add Link Nearby VenuesMetar ALERT Operation Metar Decoded Social comments

AIRNAV info for KRXE